sensor_id;sensor_type;location;lat;lon;timestamp;P1;durP1;ratioP1;P2;durP2;ratioP2
29662;SDS011;16578;53.266;7.920;2024-02-15T00:00:39;15.75;;;12.65;;
29662;SDS011;16578;53.266;7.920;2024-02-15T00:03:05;16.45;;;12.05;;
29662;SDS011;16578;53.266;7.920;2024-02-15T00:05:38;15.85;;;11.70;;
29662;SDS011;16578;53.266;7.920;2024-02-15T00:08:04;13.32;;;11.13;;
29662;SDS011;16578;53.266;7.920;2024-02-15T00:10:31;17.13;;;12.70;;
29662;SDS011;16578;53.266;7.920;2024-02-15T00:12:57;13.40;;;11.32;;
29662;SDS011;16578;53.266;7.920;2024-02-15T00:15:23;13.98;;;11.70;;
29662;SDS011;16578;53.266;7.920;2024-02-15T00:17:48;16.00;;;11.75;;
29662;SDS011;16578;53.266;7.920;2024-02-15T00:20:14;13.48;;;11.20;;
29662;SDS011;16578;53.266;7.920;2024-02-15T00:22:40;18.40;;;13.38;;
29662;SDS011;16578;53.266;7.920;2024-02-15T00:25:08;14.48;;;11.68;;
29662;SDS011;16578;53.266;7.920;2024-02-15T00:27:34;19.05;;;14.40;;
29662;SDS011;16578;53.266;7.920;2024-02-15T00:30:00;17.30;;;13.73;;
29662;SDS011;16578;53.266;7.920;2024-02-15T00:32:26;16.88;;;12.05;;
29662;SDS011;16578;53.266;7.920;2024-02-15T00:34:52;16.73;;;14.10;;
29662;SDS011;16578;53.266;7.920;2024-02-15T00:37:18;19.00;;;14.63;;
29662;SDS011;16578;53.266;7.920;2024-02-15T00:39:44;16.35;;;13.23;;
29662;SDS011;16578;53.266;7.920;2024-02-15T00:42:10;17.15;;;12.82;;
29662;SDS011;16578;53.266;7.920;2024-02-15T00:44:36;16.65;;;11.93;;
29662;SDS011;16578;53.266;7.920;2024-02-15T00:47:02;21.65;;;15.57;;
29662;SDS011;16578;53.266;7.920;2024-02-15T00:49:28;17.45;;;14.57;;
29662;SDS011;16578;53.266;7.920;2024-02-15T00:51:53;17.35;;;12.63;;
29662;SDS011;16578;53.266;7.920;2024-02-15T00:54:19;19.13;;;14.20;;
29662;SDS011;16578;53.266;7.920;2024-02-15T00:56:45;17.83;;;14.70;;
29662;SDS011;16578;53.266;7.920;2024-02-15T00:59:10;16.92;;;13.55;;
29662;SDS011;16578;53.266;7.920;2024-02-15T01:01:36;17.25;;;13.95;;
29662;SDS011;16578;53.266;7.920;2024-02-15T01:04:03;20.10;;;14.43;;
29662;SDS011;16578;53.266;7.920;2024-02-15T01:06:29;22.48;;;15.82;;
29662;SDS011;16578;53.266;7.920;2024-02-15T01:08:54;17.35;;;13.90;;
29662;SDS011;16578;53.266;7.920;2024-02-15T01:11:20;20.92;;;15.30;;
29662;SDS011;16578;53.266;7.920;2024-02-15T01:13:46;19.13;;;14.10;;
29662;SDS011;16578;53.266;7.920;2024-02-15T01:16:11;18.80;;;13.48;;
29662;SDS011;16578;53.266;7.920;2024-02-15T01:18:37;16.63;;;13.02;;
29662;SDS011;16578;53.266;7.920;2024-02-15T01:21:03;19.63;;;15.25;;
29662;SDS011;16578;53.266;7.920;2024-02-15T01:23:28;18.77;;;13.43;;
29662;SDS011;16578;53.266;7.920;2024-02-15T01:25:54;22.30;;;15.10;;
29662;SDS011;16578;53.266;7.920;2024-02-15T01:28:20;20.70;;;12.10;;
29662;SDS011;16578;53.266;7.920;2024-02-15T01:30:46;15.82;;;12.25;;
29662;SDS011;16578;53.266;7.920;2024-02-15T01:33:12;24.27;;;15.13;;
29662;SDS011;16578;53.266;7.920;2024-02-15T01:35:37;19.98;;;13.60;;
29662;SDS011;16578;53.266;7.920;2024-02-15T01:38:03;20.20;;;14.00;;
29662;SDS011;16578;53.266;7.920;2024-02-15T01:40:32;22.83;;;15.90;;
29662;SDS011;16578;53.266;7.920;2024-02-15T01:42:58;24.67;;;17.00;;
29662;SDS011;16578;53.266;7.920;2024-02-15T01:45:25;22.45;;;15.90;;
29662;SDS011;16578;53.266;7.920;2024-02-15T01:47:52;20.67;;;15.90;;
29662;SDS011;16578;53.266;7.920;2024-02-15T01:50:18;24.48;;;17.90;;
29662;SDS011;16578;53.266;7.920;2024-02-15T01:52:45;22.98;;;14.23;;
29662;SDS011;16578;53.266;7.920;2024-02-15T01:55:13;26.83;;;18.17;;
29662;SDS011;16578;53.266;7.920;2024-02-15T01:57:40;24.95;;;15.65;;
29662;SDS011;16578;53.266;7.920;2024-02-15T02:00:12;22.98;;;16.02;;
29662;SDS011;16578;53.266;7.920;2024-02-15T02:02:42;24.52;;;15.57;;
29662;SDS011;16578;53.266;7.920;2024-02-15T02:05:09;21.42;;;14.02;;
29662;SDS011;16578;53.266;7.920;2024-02-15T02:07:35;23.50;;;14.57;;
29662;SDS011;16578;53.266;7.920;2024-02-15T02:10:00;21.98;;;14.68;;
29662;SDS011;16578;53.266;7.920;2024-02-15T02:12:26;28.58;;;16.73;;
29662;SDS011;16578;53.266;7.920;2024-02-15T02:14:52;21.63;;;16.52;;
29662;SDS011;16578;53.266;7.920;2024-02-15T02:17:21;23.02;;;14.68;;
29662;SDS011;16578;53.266;7.920;2024-02-15T02:19:47;25.42;;;16.50;;
29662;SDS011;16578;53.266;7.920;2024-02-15T02:22:15;22.30;;;16.00;;
29662;SDS011;16578;53.266;7.920;2024-02-15T02:24:56;25.75;;;17.00;;
29662;SDS011;16578;53.266;7.920;2024-02-15T02:27:40;22.73;;;16.83;;
29662;SDS011;16578;53.266;7.920;2024-02-15T02:30:12;24.92;;;17.02;;
29662;SDS011;16578;53.266;7.920;2024-02-15T02:32:46;25.17;;;16.35;;
29662;SDS011;16578;53.266;7.920;2024-02-15T02:35:11;27.40;;;18.23;;
29662;SDS011;16578;53.266;7.920;2024-02-15T02:37:38;20.98;;;16.52;;
29662;SDS011;16578;53.266;7.920;2024-02-15T02:40:05;27.10;;;18.23;;
29662;SDS011;16578;53.266;7.920;2024-02-15T02:42:56;23.42;;;18.40;;
29662;SDS011;16578;53.266;7.920;2024-02-15T02:45:26;24.02;;;17.48;;
29662;SDS011;16578;53.266;7.920;2024-02-15T02:47:52;24.50;;;16.10;;
29662;SDS011;16578;53.266;7.920;2024-02-15T02:50:19;25.08;;;18.23;;
29662;SDS011;16578;53.266;7.920;2024-02-15T02:52:48;19.42;;;15.88;;
29662;SDS011;16578;53.266;7.920;2024-02-15T02:55:14;21.23;;;17.42;;
29662;SDS011;16578;53.266;7.920;2024-02-15T02:57:40;20.08;;;16.45;;
29662;SDS011;16578;53.266;7.920;2024-02-15T03:00:07;24.08;;;17.08;;
29662;SDS011;16578;53.266;7.920;2024-02-15T03:02:38;19.27;;;15.70;;
29662;SDS011;16578;53.266;7.920;2024-02-15T03:05:04;19.63;;;15.05;;
29662;SDS011;16578;53.266;7.920;2024-02-15T03:07:34;23.25;;;16.33;;
29662;SDS011;16578;53.266;7.920;2024-02-15T03:10:04;23.38;;;16.10;;
29662;SDS011;16578;53.266;7.920;2024-02-15T03:12:33;23.77;;;16.38;;
29662;SDS011;16578;53.266;7.920;2024-02-15T03:15:02;23.00;;;14.57;;
29662;SDS011;16578;53.266;7.920;2024-02-15T03:17:40;17.67;;;12.80;;
29662;SDS011;16578;53.266;7.920;2024-02-15T03:20:06;23.77;;;15.02;;
29662;SDS011;16578;53.266;7.920;2024-02-15T03:22:36;18.40;;;14.13;;
29662;SDS011;16578;53.266;7.920;2024-02-15T03:25:03;20.75;;;13.95;;
29662;SDS011;16578;53.266;7.920;2024-02-15T03:27:36;18.48;;;12.20;;
29662;SDS011;16578;53.266;7.920;2024-02-15T03:30:02;19.85;;;14.43;;
29662;SDS011;16578;53.266;7.920;2024-02-15T03:32:29;19.65;;;13.77;;
29662;SDS011;16578;53.266;7.920;2024-02-15T03:34:55;17.63;;;13.65;;
29662;SDS011;16578;53.266;7.920;2024-02-15T03:37:20;19.33;;;12.60;;
29662;SDS011;16578;53.266;7.920;2024-02-15T03:39:46;17.48;;;11.93;;
29662;SDS011;16578;53.266;7.920;2024-02-15T03:42:12;19.17;;;14.48;;
29662;SDS011;16578;53.266;7.920;2024-02-15T03:44:37;20.35;;;13.52;;
29662;SDS011;16578;53.266;7.920;2024-02-15T03:47:03;19.10;;;13.38;;
29662;SDS011;16578;53.266;7.920;2024-02-15T03:49:30;15.70;;;11.98;;
29662;SDS011;16578;53.266;7.920;2024-02-15T03:51:56;19.52;;;12.88;;
29662;SDS011;16578;53.266;7.920;2024-02-15T03:54:24;15.98;;;11.68;;
29662;SDS011;16578;53.266;7.920;2024-02-15T03:56:50;16.25;;;12.82;;
29662;SDS011;16578;53.266;7.920;2024-02-15T03:59:18;14.35;;;10.38;;
29662;SDS011;16578;53.266;7.920;2024-02-15T04:01:50;13.27;;;9.48;;
29662;SDS011;16578;53.266;7.920;2024-02-15T04:04:16;16.65;;;11.50;;
29662;SDS011;16578;53.266;7.920;2024-02-15T04:06:42;18.00;;;11.43;;
29662;SDS011;16578;53.266;7.920;2024-02-15T04:09:08;14.38;;;10.68;;
29662;SDS011;16578;53.266;7.920;2024-02-15T04:11:35;16.13;;;12.37;;
29662;SDS011;16578;53.266;7.920;2024-02-15T04:14:02;15.27;;;10.55;;
29662;SDS011;16578;53.266;7.920;2024-02-15T04:16:28;14.32;;;10.60;;
29662;SDS011;16578;53.266;7.920;2024-02-15T04:18:55;12.63;;;10.15;;
29662;SDS011;16578;53.266;7.920;2024-02-15T04:21:22;12.27;;;9.93;;
29662;SDS011;16578;53.266;7.920;2024-02-15T04:23:48;13.50;;;9.93;;
29662;SDS011;16578;53.266;7.920;2024-02-15T04:26:13;12.85;;;9.48;;
29662;SDS011;16578;53.266;7.920;2024-02-15T04:28:39;14.00;;;10.60;;
29662;SDS011;16578;53.266;7.920;2024-02-15T04:31:06;13.70;;;10.43;;
29662;SDS011;16578;53.266;7.920;2024-02-15T04:33:34;13.57;;;10.68;;
29662;SDS011;16578;53.266;7.920;2024-02-15T04:35:59;15.90;;;10.98;;
29662;SDS011;16578;53.266;7.920;2024-02-15T04:38:31;15.77;;;11.82;;
29662;SDS011;16578;53.266;7.920;2024-02-15T04:40:59;14.25;;;10.65;;
29662;SDS011;16578;53.266;7.920;2024-02-15T04:43:30;12.52;;;9.40;;
29662;SDS011;16578;53.266;7.920;2024-02-15T04:45:58;12.85;;;9.32;;
29662;SDS011;16578;53.266;7.920;2024-02-15T04:48:25;13.43;;;10.35;;
29662;SDS011;16578;53.266;7.920;2024-02-15T04:50:52;15.07;;;10.85;;
29662;SDS011;16578;53.266;7.920;2024-02-15T04:53:19;13.20;;;9.83;;
29662;SDS011;16578;53.266;7.920;2024-02-15T04:55:46;15.07;;;11.48;;
29662;SDS011;16578;53.266;7.920;2024-02-15T04:58:11;12.18;;;10.68;;
29662;SDS011;16578;53.266;7.920;2024-02-15T05:00:37;12.35;;;9.35;;
29662;SDS011;16578;53.266;7.920;2024-02-15T05:03:03;12.93;;;11.35;;
29662;SDS011;16578;53.266;7.920;2024-02-15T05:05:29;16.77;;;12.52;;
29662;SDS011;16578;53.266;7.920;2024-02-15T05:07:54;13.75;;;11.63;;
29662;SDS011;16578;53.266;7.920;2024-02-15T05:10:20;16.20;;;11.80;;
29662;SDS011;16578;53.266;7.920;2024-02-15T05:12:46;16.15;;;12.02;;
29662;SDS011;16578;53.266;7.920;2024-02-15T05:15:13;16.92;;;12.50;;
29662;SDS011;16578;53.266;7.920;2024-02-15T05:17:42;14.07;;;10.77;;
29662;SDS011;16578;53.266;7.920;2024-02-15T05:20:08;16.20;;;11.70;;
29662;SDS011;16578;53.266;7.920;2024-02-15T05:22:38;13.18;;;9.63;;
29662;SDS011;16578;53.266;7.920;2024-02-15T05:25:06;13.70;;;9.52;;
29662;SDS011;16578;53.266;7.920;2024-02-15T05:27:33;15.43;;;10.93;;
29662;SDS011;16578;53.266;7.920;2024-02-15T05:29:59;13.30;;;10.52;;
29662;SDS011;16578;53.266;7.920;2024-02-15T05:32:24;18.20;;;11.60;;
29662;SDS011;16578;53.266;7.920;2024-02-15T05:34:51;13.30;;;9.85;;
29662;SDS011;16578;53.266;7.920;2024-02-15T05:37:19;11.32;;;8.93;;
29662;SDS011;16578;53.266;7.920;2024-02-15T05:39:45;14.65;;;10.23;;
29662;SDS011;16578;53.266;7.920;2024-02-15T05:42:11;13.32;;;9.80;;
29662;SDS011;16578;53.266;7.920;2024-02-15T05:44:36;15.27;;;10.82;;
29662;SDS011;16578;53.266;7.920;2024-02-15T05:47:02;15.85;;;11.77;;
29662;SDS011;16578;53.266;7.920;2024-02-15T05:49:28;15.15;;;13.27;;
29662;SDS011;16578;53.266;7.920;2024-02-15T05:51:53;18.38;;;13.48;;
29662;SDS011;16578;53.266;7.920;2024-02-15T05:54:19;18.45;;;12.95;;
29662;SDS011;16578;53.266;7.920;2024-02-15T05:56:47;16.23;;;11.52;;
29662;SDS011;16578;53.266;7.920;2024-02-15T05:59:16;16.20;;;12.68;;
29662;SDS011;16578;53.266;7.920;2024-02-15T06:01:45;20.15;;;13.50;;
29662;SDS011;16578;53.266;7.920;2024-02-15T06:04:13;18.75;;;13.98;;
29662;SDS011;16578;53.266;7.920;2024-02-15T06:06:39;22.10;;;16.55;;
29662;SDS011;16578;53.266;7.920;2024-02-15T06:09:05;25.75;;;18.10;;
29662;SDS011;16578;53.266;7.920;2024-02-15T06:11:30;25.13;;;17.58;;
29662;SDS011;16578;53.266;7.920;2024-02-15T06:13:56;21.70;;;18.08;;
29662;SDS011;16578;53.266;7.920;2024-02-15T06:16:22;22.50;;;18.33;;
29662;SDS011;16578;53.266;7.920;2024-02-15T06:18:48;23.38;;;19.27;;
29662;SDS011;16578;53.266;7.920;2024-02-15T06:21:13;25.80;;;18.58;;
29662;SDS011;16578;53.266;7.920;2024-02-15T06:23:39;25.20;;;20.15;;
29662;SDS011;16578;53.266;7.920;2024-02-15T06:26:05;25.70;;;19.85;;
29662;SDS011;16578;53.266;7.920;2024-02-15T06:28:31;20.50;;;15.77;;
29662;SDS011;16578;53.266;7.920;2024-02-15T06:31:15;22.52;;;15.90;;
29662;SDS011;16578;53.266;7.920;2024-02-15T06:33:59;23.38;;;16.40;;
29662;SDS011;16578;53.266;7.920;2024-02-15T06:36:53;24.80;;;19.55;;
29662;SDS011;16578;53.266;7.920;2024-02-15T06:39:38;25.23;;;19.33;;
29662;SDS011;16578;53.266;7.920;2024-02-15T06:42:07;20.65;;;17.75;;
29662;SDS011;16578;53.266;7.920;2024-02-15T06:44:39;23.63;;;17.50;;
29662;SDS011;16578;53.266;7.920;2024-02-15T06:47:05;29.83;;;21.02;;
29662;SDS011;16578;53.266;7.920;2024-02-15T06:49:31;29.40;;;20.08;;
29662;SDS011;16578;53.266;7.920;2024-02-15T06:51:58;29.45;;;22.50;;
29662;SDS011;16578;53.266;7.920;2024-02-15T06:56:52;28.23;;;20.15;;
29662;SDS011;16578;53.266;7.920;2024-02-15T06:59:19;21.92;;;17.63;;
29662;SDS011;16578;53.266;7.920;2024-02-15T07:01:47;17.17;;;13.33;;
29662;SDS011;16578;53.266;7.920;2024-02-15T07:04:14;23.52;;;17.25;;
29662;SDS011;16578;53.266;7.920;2024-02-15T07:06:39;27.13;;;18.33;;
29662;SDS011;16578;53.266;7.920;2024-02-15T07:09:05;20.65;;;17.15;;
29662;SDS011;16578;53.266;7.920;2024-02-15T07:11:34;23.25;;;16.80;;
29662;SDS011;16578;53.266;7.920;2024-02-15T07:14:00;26.45;;;20.27;;
29662;SDS011;16578;53.266;7.920;2024-02-15T07:16:26;25.02;;;19.67;;
29662;SDS011;16578;53.266;7.920;2024-02-15T07:18:52;26.15;;;20.35;;
29662;SDS011;16578;53.266;7.920;2024-02-15T07:21:17;34.20;;;20.80;;
29662;SDS011;16578;53.266;7.920;2024-02-15T07:23:48;27.25;;;18.67;;
29662;SDS011;16578;53.266;7.920;2024-02-15T07:26:13;22.23;;;17.20;;
29662;SDS011;16578;53.266;7.920;2024-02-15T07:28:40;29.92;;;18.60;;
29662;SDS011;16578;53.266;7.920;2024-02-15T07:31:05;23.83;;;19.55;;
29662;SDS011;16578;53.266;7.920;2024-02-15T07:33:32;26.02;;;19.90;;
29662;SDS011;16578;53.266;7.920;2024-02-15T07:36:00;26.33;;;18.45;;
29662;SDS011;16578;53.266;7.920;2024-02-15T07:38:26;25.02;;;20.38;;
29662;SDS011;16578;53.266;7.920;2024-02-15T07:40:51;25.67;;;20.92;;
29662;SDS011;16578;53.266;7.920;2024-02-15T07:43:17;24.88;;;19.95;;
29662;SDS011;16578;53.266;7.920;2024-02-15T07:45:42;25.85;;;21.00;;
29662;SDS011;16578;53.266;7.920;2024-02-15T07:48:08;22.58;;;19.95;;
29662;SDS011;16578;53.266;7.920;2024-02-15T07:50:34;25.85;;;21.35;;
29662;SDS011;16578;53.266;7.920;2024-02-15T07:53:02;28.13;;;22.17;;
29662;SDS011;16578;53.266;7.920;2024-02-15T07:55:28;29.02;;;21.08;;
29662;SDS011;16578;53.266;7.920;2024-02-15T07:57:53;29.83;;;21.88;;
29662;SDS011;16578;53.266;7.920;2024-02-15T08:00:20;28.23;;;21.27;;
29662;SDS011;16578;53.266;7.920;2024-02-15T08:02:46;27.40;;;20.42;;
29662;SDS011;16578;53.266;7.920;2024-02-15T08:05:12;28.08;;;22.15;;
29662;SDS011;16578;53.266;7.920;2024-02-15T08:07:43;27.35;;;23.08;;
29662;SDS011;16578;53.266;7.920;2024-02-15T08:10:10;25.35;;;22.60;;
29662;SDS011;16578;53.266;7.920;2024-02-15T08:12:40;28.92;;;23.60;;
29662;SDS011;16578;53.266;7.920;2024-02-15T08:15:10;24.52;;;19.10;;
29662;SDS011;16578;53.266;7.920;2024-02-15T08:17:40;26.40;;;22.13;;
29662;SDS011;16578;53.266;7.920;2024-02-15T08:20:10;31.02;;;24.92;;
29662;SDS011;16578;53.266;7.920;2024-02-15T08:22:37;33.67;;;26.85;;
29662;SDS011;16578;53.266;7.920;2024-02-15T08:25:11;31.35;;;25.65;;
29662;SDS011;16578;53.266;7.920;2024-02-15T08:27:38;30.85;;;25.35;;
29662;SDS011;16578;53.266;7.920;2024-02-15T08:30:12;30.60;;;24.90;;
29662;SDS011;16578;53.266;7.920;2024-02-15T08:32:39;29.80;;;23.15;;
29662;SDS011;16578;53.266;7.920;2024-02-15T08:35:07;33.00;;;25.92;;
29662;SDS011;16578;53.266;7.920;2024-02-15T08:37:34;33.95;;;24.80;;
29662;SDS011;16578;53.266;7.920;2024-02-15T08:40:04;29.73;;;23.58;;
29662;SDS011;16578;53.266;7.920;2024-02-15T08:42:35;29.38;;;24.35;;
29662;SDS011;16578;53.266;7.920;2024-02-15T08:45:05;30.63;;;23.80;;
29662;SDS011;16578;53.266;7.920;2024-02-15T08:47:34;27.67;;;23.10;;
29662;SDS011;16578;53.266;7.920;2024-02-15T08:50:04;30.30;;;25.42;;
29662;SDS011;16578;53.266;7.920;2024-02-15T08:52:30;28.85;;;23.33;;
29662;SDS011;16578;53.266;7.920;2024-02-15T08:54:56;27.80;;;22.92;;
29662;SDS011;16578;53.266;7.920;2024-02-15T08:57:23;27.10;;;21.93;;
29662;SDS011;16578;53.266;7.920;2024-02-15T08:59:49;29.05;;;22.38;;
29662;SDS011;16578;53.266;7.920;2024-02-15T09:02:16;28.77;;;22.17;;
29662;SDS011;16578;53.266;7.920;2024-02-15T09:04:42;26.20;;;21.13;;
29662;SDS011;16578;53.266;7.920;2024-02-15T09:07:08;25.05;;;21.42;;
29662;SDS011;16578;53.266;7.920;2024-02-15T09:09:34;25.63;;;20.95;;
29662;SDS011;16578;53.266;7.920;2024-02-15T09:12:02;23.17;;;19.90;;
29662;SDS011;16578;53.266;7.920;2024-02-15T09:14:31;27.35;;;20.48;;
29662;SDS011;16578;53.266;7.920;2024-02-15T09:16:58;27.98;;;19.38;;
29662;SDS011;16578;53.266;7.920;2024-02-15T09:19:24;25.77;;;20.38;;
29662;SDS011;16578;53.266;7.920;2024-02-15T09:21:50;23.35;;;19.70;;
29662;SDS011;16578;53.266;7.920;2024-02-15T09:24:15;23.80;;;19.00;;
29662;SDS011;16578;53.266;7.920;2024-02-15T09:26:41;24.17;;;18.33;;
29662;SDS011;16578;53.266;7.920;2024-02-15T09:29:08;20.98;;;17.17;;
29662;SDS011;16578;53.266;7.920;2024-02-15T09:31:33;23.70;;;15.98;;
29662;SDS011;16578;53.266;7.920;2024-02-15T09:34:01;22.52;;;16.85;;
29662;SDS011;16578;53.266;7.920;2024-02-15T09:36:33;21.60;;;16.13;;
29662;SDS011;16578;53.266;7.920;2024-02-15T09:39:00;21.52;;;16.88;;
29662;SDS011;16578;53.266;7.920;2024-02-15T09:41:25;20.23;;;16.27;;
29662;SDS011;16578;53.266;7.920;2024-02-15T09:43:51;20.02;;;15.88;;
29662;SDS011;16578;53.266;7.920;2024-02-15T09:46:17;24.13;;;16.40;;
29662;SDS011;16578;53.266;7.920;2024-02-15T09:48:43;20.08;;;15.63;;
29662;SDS011;16578;53.266;7.920;2024-02-15T09:51:23;19.42;;;14.98;;
29662;SDS011;16578;53.266;7.920;2024-02-15T09:53:52;21.17;;;15.45;;
29662;SDS011;16578;53.266;7.920;2024-02-15T09:56:19;23.77;;;15.55;;
29662;SDS011;16578;53.266;7.920;2024-02-15T09:58:46;20.02;;;14.60;;
29662;SDS011;16578;53.266;7.920;2024-02-15T10:01:12;18.70;;;14.43;;
29662;SDS011;16578;53.266;7.920;2024-02-15T10:03:39;16.73;;;14.23;;
29662;SDS011;16578;53.266;7.920;2024-02-15T10:06:06;15.32;;;12.73;;
29662;SDS011;16578;53.266;7.920;2024-02-15T10:08:32;14.55;;;12.40;;
29662;SDS011;16578;53.266;7.920;2024-02-15T10:11:10;13.60;;;11.90;;
29662;SDS011;16578;53.266;7.920;2024-02-15T10:16:15;11.23;;;10.02;;
29662;SDS011;16578;53.266;7.920;2024-02-15T10:18:41;11.45;;;10.25;;
29662;SDS011;16578;53.266;7.920;2024-02-15T10:21:07;11.57;;;10.30;;
29662;SDS011;16578;53.266;7.920;2024-02-15T10:23:32;10.35;;;9.30;;
29662;SDS011;16578;53.266;7.920;2024-02-15T10:25:58;11.40;;;9.45;;
29662;SDS011;16578;53.266;7.920;2024-02-15T10:28:23;11.13;;;10.02;;
29662;SDS011;16578;53.266;7.920;2024-02-15T10:30:49;13.98;;;9.68;;
29662;SDS011;16578;53.266;7.920;2024-02-15T10:33:27;10.63;;;9.55;;
29662;SDS011;16578;53.266;7.920;2024-02-15T10:36:06;10.32;;;9.15;;
29662;SDS011;16578;53.266;7.920;2024-02-15T10:38:39;11.15;;;9.55;;
29662;SDS011;16578;53.266;7.920;2024-02-15T10:41:05;10.63;;;9.52;;
29662;SDS011;16578;53.266;7.920;2024-02-15T10:43:35;12.43;;;10.50;;
29662;SDS011;16578;53.266;7.920;2024-02-15T10:46:03;11.45;;;10.35;;
29662;SDS011;16578;53.266;7.920;2024-02-15T10:48:29;13.57;;;10.68;;
29662;SDS011;16578;53.266;7.920;2024-02-15T10:51:00;13.07;;;11.02;;
29662;SDS011;16578;53.266;7.920;2024-02-15T10:53:33;12.30;;;9.70;;
29662;SDS011;16578;53.266;7.920;2024-02-15T10:56:21;11.27;;;10.10;;
29662;SDS011;16578;53.266;7.920;2024-02-15T10:59:00;10.55;;;9.13;;
29662;SDS011;16578;53.266;7.920;2024-02-15T11:01:40;11.48;;;10.02;;
29662;SDS011;16578;53.266;7.920;2024-02-15T11:04:09;13.55;;;10.07;;
29662;SDS011;16578;53.266;7.920;2024-02-15T11:06:39;11.07;;;9.48;;
29662;SDS011;16578;53.266;7.920;2024-02-15T11:09:09;11.93;;;9.68;;
29662;SDS011;16578;53.266;7.920;2024-02-15T11:11:36;11.53;;;10.07;;
29662;SDS011;16578;53.266;7.920;2024-02-15T11:16:48;12.68;;;9.60;;
29662;SDS011;16578;53.266;7.920;2024-02-15T11:22:00;13.10;;;9.30;;
29662;SDS011;16578;53.266;7.920;2024-02-15T11:27:00;8.93;;;7.80;;
29662;SDS011;16578;53.266;7.920;2024-02-15T11:29:47;9.85;;;8.35;;
29662;SDS011;16578;53.266;7.920;2024-02-15T11:32:33;9.90;;;8.75;;
29662;SDS011;16578;53.266;7.920;2024-02-15T11:43:00;11.70;;;8.45;;
29662;SDS011;16578;53.266;7.920;2024-02-15T11:45:26;11.20;;;8.23;;
29662;SDS011;16578;53.266;7.920;2024-02-15T11:48:03;14.52;;;8.52;;
29662;SDS011;16578;53.266;7.920;2024-02-15T11:50:35;9.32;;;7.75;;
29662;SDS011;16578;53.266;7.920;2024-02-15T11:53:03;9.52;;;7.75;;
29662;SDS011;16578;53.266;7.920;2024-02-15T11:55:34;9.70;;;7.53;;
29662;SDS011;16578;53.266;7.920;2024-02-15T11:58:01;9.23;;;7.30;;
29662;SDS011;16578;53.266;7.920;2024-02-15T12:00:43;8.35;;;7.50;;
29662;SDS011;16578;53.266;7.920;2024-02-15T12:03:27;9.52;;;6.93;;
29662;SDS011;16578;53.266;7.920;2024-02-15T12:06:12;7.95;;;7.05;;
29662;SDS011;16578;53.266;7.920;2024-02-15T12:09:00;9.85;;;8.00;;
29662;SDS011;16578;53.266;7.920;2024-02-15T12:11:44;7.40;;;6.15;;
29662;SDS011;16578;53.266;7.920;2024-02-15T12:14:28;9.40;;;6.50;;
29662;SDS011;16578;53.266;7.920;2024-02-15T12:17:13;5.95;;;5.32;;
29662;SDS011;16578;53.266;7.920;2024-02-15T12:20:01;6.00;;;5.40;;
29662;SDS011;16578;53.266;7.920;2024-02-15T12:22:34;5.90;;;5.25;;
29662;SDS011;16578;53.266;7.920;2024-02-15T12:25:05;5.03;;;4.63;;
29662;SDS011;16578;53.266;7.920;2024-02-15T12:27:42;5.35;;;4.85;;
29662;SDS011;16578;53.266;7.920;2024-02-15T12:30:15;5.28;;;4.78;;
29662;SDS011;16578;53.266;7.920;2024-02-15T12:32:46;6.18;;;4.72;;
29662;SDS011;16578;53.266;7.920;2024-02-15T12:35:16;4.80;;;4.35;;
29662;SDS011;16578;53.266;7.920;2024-02-15T12:38:01;4.97;;;4.20;;
29662;SDS011;16578;53.266;7.920;2024-02-15T12:40:33;5.18;;;4.47;;
29662;SDS011;16578;53.266;7.920;2024-02-15T12:43:05;4.43;;;4.03;;
29662;SDS011;16578;53.266;7.920;2024-02-15T12:45:35;3.85;;;3.55;;
29662;SDS011;16578;53.266;7.920;2024-02-15T12:50:31;3.70;;;3.33;;
29662;SDS011;16578;53.266;7.920;2024-02-15T12:52:57;4.10;;;3.50;;
29662;SDS011;16578;53.266;7.920;2024-02-15T12:55:29;4.05;;;3.65;;
29662;SDS011;16578;53.266;7.920;2024-02-15T12:58:06;4.18;;;3.67;;
29662;SDS011;16578;53.266;7.920;2024-02-15T13:00:40;4.10;;;3.67;;
29662;SDS011;16578;53.266;7.920;2024-02-15T13:03:06;3.90;;;3.60;;
29662;SDS011;16578;53.266;7.920;2024-02-15T13:05:35;4.93;;;4.03;;
29662;SDS011;16578;53.266;7.920;2024-02-15T13:08:02;4.38;;;3.35;;
29662;SDS011;16578;53.266;7.920;2024-02-15T13:10:35;3.72;;;3.42;;
29662;SDS011;16578;53.266;7.920;2024-02-15T13:13:01;3.92;;;3.60;;
29662;SDS011;16578;53.266;7.920;2024-02-15T13:15:27;3.97;;;3.58;;
29662;SDS011;16578;53.266;7.920;2024-02-15T13:17:57;3.08;;;2.78;;
29662;SDS011;16578;53.266;7.920;2024-02-15T13:20:24;3.90;;;3.15;;
29662;SDS011;16578;53.266;7.920;2024-02-15T13:22:57;3.75;;;2.80;;
29662;SDS011;16578;53.266;7.920;2024-02-15T13:25:28;4.20;;;3.05;;
29662;SDS011;16578;53.266;7.920;2024-02-15T13:27:54;3.25;;;2.95;;
29662;SDS011;16578;53.266;7.920;2024-02-15T13:30:22;3.47;;;2.70;;
29662;SDS011;16578;53.266;7.920;2024-02-15T13:32:51;3.17;;;2.53;;
29662;SDS011;16578;53.266;7.920;2024-02-15T13:35:18;2.88;;;2.58;;
29662;SDS011;16578;53.266;7.920;2024-02-15T13:37:51;2.40;;;2.20;;
29662;SDS011;16578;53.266;7.920;2024-02-15T13:40:18;3.63;;;2.35;;
29662;SDS011;16578;53.266;7.920;2024-02-15T13:42:48;3.28;;;2.33;;
29662;SDS011;16578;53.266;7.920;2024-02-15T13:45:17;2.60;;;2.13;;
29662;SDS011;16578;53.266;7.920;2024-02-15T13:47:52;3.42;;;2.60;;
29662;SDS011;16578;53.266;7.920;2024-02-15T13:50:21;2.20;;;1.98;;
29662;SDS011;16578;53.266;7.920;2024-02-15T13:52:46;3.33;;;2.20;;
29662;SDS011;16578;53.266;7.920;2024-02-15T13:55:16;2.35;;;2.15;;
29662;SDS011;16578;53.266;7.920;2024-02-15T13:57:46;2.95;;;2.10;;
29662;SDS011;16578;53.266;7.920;2024-02-15T14:00:13;3.88;;;2.05;;
29662;SDS011;16578;53.266;7.920;2024-02-15T14:02:52;3.22;;;2.35;;
29662;SDS011;16578;53.266;7.920;2024-02-15T14:05:19;2.05;;;1.85;;
29662;SDS011;16578;53.266;7.920;2024-02-15T14:07:55;2.50;;;2.08;;
29662;SDS011;16578;53.266;7.920;2024-02-15T14:10:23;3.20;;;2.00;;
29662;SDS011;16578;53.266;7.920;2024-02-15T14:12:50;3.35;;;2.25;;
29662;SDS011;16578;53.266;7.920;2024-02-15T14:15:26;2.67;;;2.13;;
29662;SDS011;16578;53.266;7.920;2024-02-15T14:17:54;2.50;;;2.30;;
29662;SDS011;16578;53.266;7.920;2024-02-15T14:20:21;2.40;;;2.05;;
29662;SDS011;16578;53.266;7.920;2024-02-15T14:22:47;3.00;;;2.17;;
29662;SDS011;16578;53.266;7.920;2024-02-15T14:25:23;3.53;;;2.10;;
29662;SDS011;16578;53.266;7.920;2024-02-15T14:27:50;2.65;;;1.85;;
29662;SDS011;16578;53.266;7.920;2024-02-15T14:30:17;4.88;;;2.58;;
29662;SDS011;16578;53.266;7.920;2024-02-15T14:33:02;2.13;;;1.92;;
29662;SDS011;16578;53.266;7.920;2024-02-15T14:35:32;2.58;;;2.33;;
29662;SDS011;16578;53.266;7.920;2024-02-15T14:38:02;2.42;;;1.80;;
29662;SDS011;16578;53.266;7.920;2024-02-15T14:40:32;3.63;;;2.00;;
29662;SDS011;16578;53.266;7.920;2024-02-15T14:42:58;2.45;;;1.80;;
29662;SDS011;16578;53.266;7.920;2024-02-15T14:45:24;3.80;;;2.03;;
29662;SDS011;16578;53.266;7.920;2024-02-15T14:47:50;2.38;;;2.17;;
29662;SDS011;16578;53.266;7.920;2024-02-15T14:50:15;2.00;;;1.90;;
29662;SDS011;16578;53.266;7.920;2024-02-15T14:52:41;3.30;;;2.30;;
29662;SDS011;16578;53.266;7.920;2024-02-15T14:55:07;2.28;;;2.08;;
29662;SDS011;16578;53.266;7.920;2024-02-15T14:57:33;2.53;;;2.10;;
29662;SDS011;16578;53.266;7.920;2024-02-15T15:00:01;3.80;;;2.47;;